Time;durP1;ratioP1;P1;durP2;ratioP2;P2;SDS_P1;SDS_P2;PMS_P1;PMS_P2;Temp;Humidity;BMP_temperature;BMP_pressure;BME280_temperature;BME280_humidity;BME280_pressure;Samples;Min_cycle;Max_cycle;Signal;HPM_P1;HPM_P2
2022/06/01 00:01:51;;;;;;;4.85;2.80;;;14.70;1.00;;;;;;7365455;19;20086;-59
2022/06/01 00:04:22;;;;;;;5.30;3.20;;;14.60;1.00;;;;;;7361160;19;20018;-59
2022/06/01 00:06:56;;;;;;;7.07;3.13;;;14.50;1.00;;;;;;7365823;19;20479;-59
2022/06/01 00:09:26;;;;;;;5.28;3.15;;;14.50;1.00;;;;;;7368113;19;20654;-59
2022/06/01 00:11:56;;;;;;;5.82;2.92;;;14.50;1.00;;;;;;7387128;19;20010;-59
2022/06/01 00:14:26;;;;;;;5.53;3.35;;;14.40;1.00;;;;;;7360574;19;20070;-59
2022/06/01 00:16:57;;;;;;;4.57;2.95;;;14.20;1.00;;;;;;7365851;19;20070;-60
2022/06/01 00:19:27;;;;;;;7.88;3.38;;;14.00;1.00;;;;;;7365595;19;20006;-60
2022/06/01 00:24:42;;;;;;;6.28;3.03;;;13.60;1.00;;;;;;7360496;19;20396;-59
2022/06/01 00:27:13;;;;;;;5.28;3.25;;;13.50;1.00;;;;;;7381830;19;20014;-59
2022/06/01 00:29:44;;;;;;;4.75;3.30;;;13.40;1.00;;;;;;7366721;19;20532;-60
2022/06/01 00:32:15;;;;;;;4.43;3.00;;;13.30;1.00;;;;;;7364491;19;20102;-60
2022/06/01 00:34:45;;;;;;;4.05;2.58;;;13.30;1.00;;;;;;7360224;19;20010;-59
2022/06/01 00:37:19;;;;;;;4.10;3.30;;;13.30;1.00;;;;;;7363645;19;20515;-59
2022/06/01 00:39:49;;;;;;;5.13;3.33;;;13.30;1.00;;;;;;7367555;19;20066;-59
2022/06/01 00:42:22;;;;;;;6.38;3.40;;;13.30;1.00;;;;;;7387808;19;21645;-59
2022/06/01 00:44:53;;;;;;;6.55;3.72;;;13.30;1.00;;;;;;7362404;19;20026;-59
2022/06/01 00:47:24;;;;;;;4.22;3.03;;;13.20;1.00;;;;;;7364153;19;20078;-59
2022/06/01 00:49:59;;;;;;;4.55;3.58;;;13.30;1.00;;;;;;7365491;19;20564;-59
2022/06/01 00:52:40;;;;;;;;;;;13.30;1.00;;;;;;7363695;19;20077;-60
2022/06/01 00:55:13;;;;;;;5.60;3.88;;;13.30;1.00;;;;;;7364344;19;20002;-60
2022/06/01 00:57:44;;;;;;;7.53;4.10;;;13.30;1.00;;;;;;7364595;19;20013;-59
2022/06/01 01:00:20;;;;;;;5.80;3.80;;;13.30;1.00;;;;;;7387406;19;20351;-59
2022/06/01 01:02:50;;;;;;;4.72;3.58;;;13.40;1.00;;;;;;7358166;19;20471;-60
2022/06/01 01:05:21;;;;;;;4.53;3.58;;;13.40;1.00;;;;;;7359856;19;20011;-59
2022/06/01 01:07:55;;;;;;;4.63;3.38;;;13.40;1.00;;;;;;7363045;19;20111;-59
2022/06/01 01:10:25;;;;;;;6.40;3.30;;;13.40;1.00;;;;;;7362434;19;20021;-59
2022/06/01 01:13:04;;;;;;;6.82;3.80;;;13.40;1.00;;;;;;7359825;19;20021;-59
2022/06/01 01:15:37;;;;;;;5.65;3.42;;;13.30;1.00;;;;;;7362870;19;21835;-59
2022/06/01 01:18:11;;;;;;;5.47;3.47;;;13.20;1.00;;;;;;7385325;19;20491;-59
2022/06/01 01:20:53;;;;;;;5.32;3.40;;;13.20;1.00;;;;;;7364771;19;20081;-59
2022/06/01 01:23:33;;;;;;;6.90;3.83;;;13.20;1.00;;;;;;7359124;19;20042;-59
2022/06/01 01:26:07;;;;;;;8.13;3.78;;;13.20;1.00;;;;;;7361384;19;20016;-59
2022/06/01 01:28:37;;;;;;;4.82;3.50;;;13.30;1.00;;;;;;7363879;19;20003;-59
2022/06/01 01:31:09;;;;;;;5.78;3.50;;;13.20;1.00;;;;;;7372289;19;20081;-59
2022/06/01 01:33:39;;;;;;;8.25;3.60;;;13.30;1.00;;;;;;7365357;19;20022;-59
2022/06/01 01:36:12;;;;;;;5.43;3.88;;;13.50;1.00;;;;;;7391821;19;20010;-59
2022/06/01 01:38:46;;;;;;;4.15;3.53;;;13.40;1.00;;;;;;7370569;19;20057;-57
2022/06/01 01:41:22;;;;;;;;;;;13.50;1.00;;;;;;7371127;19;20013;-58
2022/06/01 01:43:57;;;;;;;5.93;3.88;;;13.70;1.00;;;;;;7364831;19;19923;-59
2022/06/01 01:46:30;;;;;;;4.28;3.13;;;13.60;1.00;;;;;;7369081;19;20011;-59
2022/06/01 01:49:02;;;;;;;5.05;3.70;;;13.60;1.00;;;;;;7370890;19;20343;-59
2022/06/01 01:51:34;;;;;;;5.95;4.15;;;13.70;1.00;;;;;;7368676;19;20305;-59
2022/06/01 01:54:08;;;;;;;9.20;4.28;;;13.50;1.00;;;;;;7386983;19;20035;-60
2022/06/01 01:56:58;;;;;;;10.52;4.60;;;13.50;1.00;;;;;;7367941;19;21091;-59
2022/06/01 01:59:39;;;;;;;6.07;4.40;;;13.60;1.00;;;;;;7370924;19;20078;-59
2022/06/01 02:02:15;;;;;;;8.02;4.28;;;13.50;1.00;;;;;;7369152;19;21371;-58
2022/06/01 02:07:37;;;;;;;6.63;4.78;;;13.50;1.00;;;;;;7369714;19;20006;-59
2022/06/01 02:12:53;;;;;;;5.88;4.25;;;13.50;1.00;;;;;;7364884;19;20006;-58
2022/06/01 02:15:30;;;;;;;6.70;4.60;;;13.40;1.00;;;;;;7368795;19;20018;-60
2022/06/01 02:18:05;;;;;;;7.45;4.68;;;13.40;1.00;;;;;;7391239;19;20006;-59
2022/06/01 02:20:36;;;;;;;;;;;13.30;1.00;;;;;;7372134;19;20696;-59
2022/06/01 02:23:06;;;;;;;8.75;4.88;;;13.30;1.00;;;;;;7363525;19;20671;-60
2022/06/01 02:25:36;;;;;;;8.25;5.13;;;13.20;1.00;;;;;;7363925;19;20011;-59
2022/06/01 02:28:10;;;;;;;9.48;5.75;;;13.20;1.00;;;;;;7370332;19;20548;-60
2022/06/01 02:30:42;;;;;;;10.10;4.97;;;13.10;1.00;;;;;;7371460;19;20256;-59
2022/06/01 02:33:18;;;;;;;10.20;5.22;;;13.10;1.00;;;;;;7387224;19;20284;-58
2022/06/01 02:35:51;;;;;;;7.00;4.45;;;13.00;1.00;;;;;;7366786;19;20006;-60
2022/06/01 02:38:25;;;;;;;6.40;4.57;;;12.90;1.00;;;;;;7368941;19;20016;-58
2022/06/01 02:40:55;;;;;;;6.63;4.82;;;12.90;1.00;;;;;;7368240;19;20006;-59
2022/06/01 02:43:28;;;;;;;5.57;4.63;;;12.80;1.00;;;;;;7365865;19;20089;-59
2022/06/01 02:45:58;;;;;;;7.53;4.53;;;12.80;1.00;;;;;;7366978;19;20024;-59
2022/06/01 02:48:28;;;;;;;6.38;5.03;;;12.80;1.00;;;;;;7368082;19;20014;-59
2022/06/01 02:50:57;;;;;;;9.07;5.20;;;12.70;1.00;;;;;;7391356;19;20006;-59
2022/06/01 02:53:27;;;;;;;8.23;5.18;;;12.60;1.00;;;;;;7364196;19;20006;-59
2022/06/01 02:55:57;;;;;;;8.52;5.20;;;12.60;1.00;;;;;;7365824;19;20522;-59
2022/06/01 02:58:29;;;;;;;8.60;5.32;;;12.70;1.00;;;;;;7369391;19;20021;-58
2022/06/01 03:01:01;;;;;;;8.00;5.22;;;12.70;1.00;;;;;;7370181;19;20474;-59
2022/06/01 03:03:31;;;;;;;7.40;5.88;;;12.70;1.00;;;;;;7363249;19;20035;-58
2022/06/01 03:06:01;;;;;;;8.73;5.82;;;12.70;1.00;;;;;;7388936;19;20080;-58
2022/06/01 03:08:32;;;;;;;8.68;5.70;;;12.80;1.00;;;;;;7368396;19;20077;-58
2022/06/01 03:11:02;;;;;;;8.13;5.85;;;12.70;1.00;;;;;;7367459;19;20016;-58
2022/06/01 03:13:34;;;;;;;7.78;6.07;;;12.70;1.00;;;;;;7364532;19;20468;-59
2022/06/01 03:16:05;;;;;;;8.45;5.65;;;12.60;1.00;;;;;;7367805;19;20921;-59
2022/06/01 03:18:35;;;;;;;10.18;5.80;;;12.60;1.00;;;;;;7368382;19;20490;-59
2022/06/01 03:21:05;;;;;;;6.57;5.43;;;12.60;1.00;;;;;;7388673;19;20011;-59
2022/06/01 03:23:35;;;;;;;8.30;6.35;;;12.60;1.00;;;;;;7363767;19;20089;-58
2022/06/01 03:26:05;;;;;;;10.75;6.07;;;12.60;1.00;;;;;;7366305;19;20094;-59
2022/06/01 03:28:37;;;;;;;9.68;6.38;;;12.70;1.00;;;;;;7368543;19;20010;-59
2022/06/01 03:31:08;;;;;;;9.80;6.22;;;12.70;1.00;;;;;;7369212;19;20082;-59
2022/06/01 03:33:38;;;;;;;10.50;6.30;;;12.60;1.00;;;;;;7361368;19;20013;-59
2022/06/01 03:36:09;;;;;;;7.00;5.72;;;12.60;1.00;;;;;;7389135;19;20015;-59
2022/06/01 03:38:39;;;;;;;10.82;6.90;;;12.60;1.00;;;;;;7367351;19;20014;-59
2022/06/01 03:41:09;;;;;;;9.65;6.40;;;12.60;1.00;;;;;;7368119;19;20011;-59
2022/06/01 03:46:23;;;;;;;;;;;13.10;1.00;;;;;;7366215;19;20043;-59
2022/06/01 03:48:54;;;;;;;12.13;6.88;;;13.10;1.00;;;;;;7366781;19;19919;-59
2022/06/01 03:51:26;;;;;;;9.02;5.82;;;13.80;1.00;;;;;;7389716;19;20025;-59
2022/06/01 03:53:55;;;;;;;9.30;6.32;;;14.10;1.00;;;;;;7360656;19;20744;-59
2022/06/01 03:56:26;;;;;;;9.18;6.13;;;14.60;1.00;;;;;;7365551;19;20073;-59
2022/06/01 03:58:59;;;;;;;9.70;6.00;;;15.20;1.00;;;;;;7364527;19;20010;-59
2022/06/01 04:01:29;;;;;;;11.25;6.25;;;15.20;1.00;;;;;;7364668;19;20017;-59
2022/06/01 04:03:59;;;;;;;7.10;5.53;;;14.90;1.00;;;;;;7359113;19;20023;-59
2022/06/01 04:06:30;;;;;;;9.60;6.05;;;15.40;1.00;;;;;;7385337;19;20017;-59
2022/06/01 04:09:00;;;;;;;10.43;6.07;;;16.00;1.00;;;;;;7364872;19;20385;-58
2022/06/01 04:11:30;;;;;;;7.13;5.63;;;16.60;1.00;;;;;;7365622;19;20090;-59
2022/06/01 04:14:02;;;;;;;10.57;5.50;;;17.40;1.00;;;;;;7358450;19;20015;-60
2022/06/01 04:16:32;;;;;;;7.88;5.45;;;17.10;1.00;;;;;;7363063;19;20010;-59
2022/06/01 04:19:03;;;;;;;8.07;5.43;;;17.00;1.00;;;;;;7364941;19;20015;-59
2022/06/01 04:21:39;;;;;;;18.17;6.10;;;16.80;1.00;;;;;;7367623;19;20074;-60
2022/06/01 04:24:13;;;;;;;8.85;5.30;;;17.00;1.00;;;;;;7381263;19;20456;-60
2022/06/01 04:26:43;;;;;;;10.30;5.70;;;16.90;1.00;;;;;;7364104;19;20010;-60
2022/06/01 04:29:16;;;;;;;7.72;5.00;;;18.00;1.00;;;;;;7364643;19;20121;-58
2022/06/01 04:31:46;;;;;;;8.00;5.07;;;18.70;1.00;;;;;;7366010;19;20011;-59
2022/06/01 04:34:16;;;;;;;8.45;4.53;;;18.50;1.00;;;;;;7361275;19;20089;-60
2022/06/01 04:36:46;;;;;;;9.20;4.55;;;19.00;1.00;;;;;;7363671;19;20022;-59
2022/06/01 04:39:16;;;;;;;5.57;4.47;;;16.10;1.00;;;;;;7386355;19;20021;-59
2022/06/01 04:41:45;;;;;;;8.38;5.20;;;18.60;1.00;;;;;;7365356;19;20017;-59
2022/06/01 04:44:19;;;;;;;10.75;5.45;;;18.80;1.00;;;;;;7360709;19;20009;-59
2022/06/01 04:46:49;;;;;;;8.70;4.50;;;19.40;1.00;;;;;;7363406;19;20010;-59
2022/06/01 04:49:19;;;;;;;5.85;4.43;;;19.60;1.00;;;;;;7364448;19;20796;-58
2022/06/01 04:51:49;;;;;;;8.02;4.20;;;18.80;1.00;;;;;;7365355;19;20050;-59
2022/06/01 04:54:19;;;;;;;7.10;4.30;;;19.80;1.00;;;;;;7381276;19;20032;-59
2022/06/01 04:56:49;;;;;;;10.05;4.47;;;19.50;1.00;;;;;;7362557;19;20022;-59
2022/06/01 04:59:21;;;;;;;7.32;4.30;;;20.30;1.00;;;;;;7364836;19;20015;-59
2022/06/01 05:01:59;;;;;;;5.10;4.55;;;19.90;1.00;;;;;;7362462;19;20013;-60
2022/06/01 05:04:30;;;;;;;5.43;4.20;;;20.30;1.00;;;;;;7359767;19;20014;-59
2022/06/01 05:07:00;;;;;;;7.88;4.32;;;20.30;1.00;;;;;;7363262;19;20007;-58
2022/06/01 05:09:30;;;;;;;9.80;4.68;;;19.10;1.00;;;;;;7372481;19;20038;-59
2022/06/01 05:12:00;;;;;;;7.97;4.75;;;19.70;1.00;;;;;;7383789;19;20077;-58
2022/06/01 05:14:32;;;;;;;5.55;4.95;;;18.70;1.00;;;;;;7358845;19;20018;-58
2022/06/01 05:17:02;;;;;;;7.35;4.57;;;19.40;1.00;;;;;;7361798;19;20039;-59
2022/06/01 05:19:34;;;;;;;8.00;4.75;;;19.90;1.00;;;;;;7363417;19;20035;-59
2022/06/01 05:22:05;;;;;;;6.60;4.78;;;19.20;1.00;;;;;;7363512;19;20019;-59
2022/06/01 05:24:34;;;;;;;7.38;4.50;;;19.70;1.00;;;;;;7357706;19;20722;-61
2022/06/01 05:27:05;;;;;;;7.00;4.72;;;19.70;1.00;;;;;;7382547;19;20017;-60
2022/06/01 05:29:39;;;;;;;8.75;4.57;;;20.80;1.00;;;;;;7362763;19;20511;-60
2022/06/01 05:32:09;;;;;;;6.72;4.85;;;20.60;1.00;;;;;;7362281;19;20462;-59
2022/06/01 05:34:39;;;;;;;6.20;3.95;;;19.90;1.00;;;;;;7358912;19;20111;-59
2022/06/01 05:37:09;;;;;;;9.18;4.63;;;20.70;1.00;;;;;;7360907;19;20512;-59
2022/06/01 05:39:39;;;;;;;6.15;4.38;;;20.30;1.00;;;;;;7362003;19;20029;-59
2022/06/01 05:42:11;;;;;;;7.10;3.88;;;20.30;1.00;;;;;;7384410;19;20021;-60
2022/06/01 05:44:43;;;;;;;8.85;4.40;;;21.10;1.00;;;;;;7358757;19;20105;-59
2022/06/01 05:47:13;;;;;;;8.35;4.20;;;21.00;1.00;;;;;;7362286;19;20014;-58
2022/06/01 05:49:43;;;;;;;5.65;4.13;;;20.00;1.00;;;;;;7362352;19;20364;-58
2022/06/01 05:52:13;;;;;;;8.68;4.10;;;20.20;1.00;;;;;;7361493;19;20036;-58
2022/06/01 05:54:43;;;;;;;7.32;4.60;;;19.70;1.00;;;;;;7357876;19;20517;-60
2022/06/01 05:57:13;;;;;;;13.00;4.72;;;20.30;1.00;;;;;;7382587;19;20085;-59
2022/06/01 05:59:45;;;;;;;9.65;5.10;;;20.70;1.00;;;;;;7361884;19;20420;-58
2022/06/01 06:02:15;;;;;;;6.60;3.85;;;21.90;1.00;;;;;;7362248;19;20019;-60
2022/06/01 06:04:45;;;;;;;8.07;3.78;;;20.70;1.00;;;;;;7357983;19;20498;-59
2022/06/01 06:07:15;;;;;;;5.75;4.18;;;19.90;1.00;;;;;;7361124;19;20010;-59
2022/06/01 06:09:45;;;;;;;8.13;4.63;;;18.90;1.00;;;;;;7359221;19;20078;-59
2022/06/01 06:12:15;;;;;;;5.30;3.88;;;17.80;1.00;;;;;;7382837;19;20011;-59
2022/06/01 06:14:47;;;;;;;9.63;3.90;;;17.70;1.00;;;;;;7357269;19;20054;-59
2022/06/01 06:17:17;;;;;;;6.53;4.00;;;18.10;1.00;;;;;;7365503;19;20010;-59
2022/06/01 06:19:47;;;;;;;5.53;3.83;;;18.50;1.00;;;;;;7369227;19;20026;-60
2022/06/01 06:22:17;;;;;;;6.85;3.35;;;18.70;1.00;;;;;;7368825;19;20019;-59
2022/06/01 06:24:47;;;;;;;7.05;3.15;;;18.90;1.00;;;;;;7363938;19;20014;-60
2022/06/01 06:27:16;;;;;;;7.15;3.10;;;18.90;1.00;;;;;;7386788;19;20384;-60
2022/06/01 06:29:49;;;;;;;3.83;3.08;;;19.40;1.00;;;;;;7367412;19;20018;-59
2022/06/01 06:32:19;;;;;;;4.85;3.05;;;20.30;1.00;;;;;;7368563;19;20014;-59
2022/06/01 06:34:48;;;;;;;7.82;3.50;;;21.00;1.00;;;;;;7365512;19;20036;-59
2022/06/01 06:37:18;;;;;;;11.73;3.50;;;21.50;1.00;;;;;;7366814;19;20017;-59
2022/06/01 06:39:48;;;;;;;6.32;3.17;;;21.10;1.00;;;;;;7368430;19;20093;-59
2022/06/01 06:42:18;;;;;;;5.40;3.45;;;20.50;1.00;;;;;;7389424;19;20015;-59
2022/06/01 06:44:50;;;;;;;5.53;3.10;;;21.10;1.00;;;;;;7362635;19;20006;-59
2022/06/01 06:47:20;;;;;;;5.68;3.25;;;20.30;1.00;;;;;;7368102;19;20446;-59
2022/06/01 06:49:50;;;;;;;8.20;3.70;;;19.50;1.00;;;;;;7367505;19;20019;-59
2022/06/01 06:52:20;;;;;;;6.10;3.15;;;19.10;1.00;;;;;;7366334;19;20013;-60
2022/06/01 06:54:50;;;;;;;8.98;3.50;;;19.40;1.00;;;;;;7365374;19;20027;-59
2022/06/01 06:57:19;;;;;;;7.55;3.13;;;19.10;1.00;;;;;;7386945;19;20082;-59
2022/06/01 06:59:52;;;;;;;4.38;2.78;;;19.90;1.00;;;;;;7367309;19;20021;-59
2022/06/01 07:02:22;;;;;;;7.20;2.70;;;20.00;1.00;;;;;;7365424;19;20011;-59
2022/06/01 07:04:52;;;;;;;5.20;3.13;;;20.20;1.00;;;;;;7363782;19;20200;-59
2022/06/01 07:07:22;;;;;;;4.95;2.95;;;20.60;1.00;;;;;;7364445;19;20042;-59
2022/06/01 07:09:52;;;;;;;5.00;3.28;;;20.20;1.00;;;;;;7367583;19;20014;-59
2022/06/01 07:12:22;;;;;;;8.32;3.45;;;19.80;1.00;;;;;;7387514;19;20133;-60
2022/06/01 07:14:54;;;;;;;5.13;2.90;;;20.00;1.00;;;;;;7364798;19;20011;-60
2022/06/01 07:17:25;;;;;;;6.82;3.17;;;19.50;1.00;;;;;;7366156;19;20085;-60
2022/06/01 07:19:58;;;;;;;5.70;2.78;;;20.20;1.00;;;;;;7367583;19;20030;-60
2022/06/01 07:22:28;;;;;;;3.75;2.83;;;20.30;1.00;;;;;;7363969;19;20799;-59
2022/06/01 07:24:58;;;;;;;5.20;2.33;;;20.40;1.00;;;;;;7364838;19;20457;-60
2022/06/01 07:27:28;;;;;;;3.30;2.80;;;20.70;1.00;;;;;;7384810;19;20024;-59
2022/06/01 07:30:00;;;;;;;6.38;2.97;;;20.80;1.00;;;;;;7366734;19;20070;-59
2022/06/01 07:32:30;;;;;;;4.55;2.20;;;20.50;1.00;;;;;;7364445;19;20011;-59
2022/06/01 07:35:02;;;;;;;5.82;2.20;;;20.40;1.00;;;;;;7366161;19;20006;-60
2022/06/01 07:43:10;;;;;;;6.63;3.00;;;21.30;1.00;;;;;;7364602;19;20010;-59
2022/06/01 07:45:46;;;;;;;7.40;2.95;;;20.50;1.00;;;;;;7363215;19;20026;-59
2022/06/01 07:48:17;;;;;;;6.07;3.10;;;20.30;1.00;;;;;;7387622;19;20342;-59
2022/06/01 07:51:07;;;;;;;3.92;2.83;;;20.10;1.00;;;;;;7367272;19;20006;-59
2022/06/01 07:53:37;;;;;;;5.97;3.20;;;20.20;1.00;;;;;;7361550;19;20122;-58
2022/06/01 07:56:08;;;;;;;5.88;3.00;;;20.20;1.00;;;;;;7363500;19;20537;-59
2022/06/01 07:58:39;;;;;;;8.18;2.92;;;20.20;1.00;;;;;;7366632;19;20002;-59
2022/06/01 08:01:12;;;;;;;4.70;2.90;;;19.90;1.00;;;;;;7365658;19;20064;-59
2022/06/01 08:03:42;;;;;;;5.95;3.10;;;20.20;1.00;;;;;;7361810;19;20062;-58
2022/06/01 08:06:12;;;;;;;6.30;2.67;;;20.40;1.00;;;;;;7385367;19;20025;-59
2022/06/01 08:08:42;;;;;;;3.30;2.38;;;20.60;1.00;;;;;;7365928;19;20049;-59
2022/06/01 08:11:12;;;;;;;9.82;2.97;;;20.60;1.00;;;;;;7367526;19;20074;-58
2022/06/01 08:13:40;;;;;;;5.50;2.92;;;20.40;1.00;;;;;;7361020;19;20102;-60
2022/06/01 08:16:12;;;;;;;5.55;2.55;;;20.20;1.00;;;;;;7363491;19;20011;-59
2022/06/01 08:18:42;;;;;;;9.18;2.67;;;20.40;1.00;;;;;;7365160;19;20026;-59
2022/06/01 08:21:12;;;;;;;3.13;2.38;;;20.10;1.00;;;;;;7388097;19;20052;-59
2022/06/01 08:23:42;;;;;;;6.60;2.20;;;20.70;1.00;;;;;;7360617;19;20003;-59
2022/06/01 08:26:12;;;;;;;6.90;3.08;;;21.20;1.00;;;;;;7362490;19;20638;-59
2022/06/01 08:28:42;;;;;;;7.50;2.88;;;21.00;1.00;;;;;;7366244;19;20012;-60
2022/06/01 08:31:15;;;;;;;5.57;3.03;;;20.50;1.00;;;;;;7366243;19;20038;-62
2022/06/01 08:33:45;;;;;;;6.03;3.35;;;20.70;1.00;;;;;;7360966;19;20466;-59
2022/06/01 08:36:15;;;;;;;16.30;3.40;;;20.60;1.00;;;;;;7384018;19;20035;-58
2022/06/01 08:38:45;;;;;;;5.38;2.75;;;20.30;1.00;;;;;;7364750;19;20014;-59
2022/06/01 08:41:16;;;;;;;5.15;2.55;;;20.40;1.00;;;;;;7366245;19;20082;-60
2022/06/01 08:43:50;;;;;;;5.90;2.30;;;20.30;1.00;;;;;;7361499;19;20003;-59
2022/06/01 08:46:26;;;;;;;4.18;3.13;;;20.50;1.00;;;;;;7362037;19;20006;-59
2022/06/01 08:48:59;;;;;;;2.33;2.10;;;20.30;1.00;;;;;;7364474;19;20010;-59
2022/06/01 08:51:32;;;;;;;7.20;2.50;;;20.20;1.00;;;;;;7387643;19;20656;-58
2022/06/01 08:54:04;;;;;;;6.20;2.55;;;20.20;1.00;;;;;;7360353;19;20454;-58
2022/06/01 08:56:39;;;;;;;5.40;2.70;;;20.20;1.00;;;;;;7359293;19;20086;-59
2022/06/01 08:59:19;;;;;;;7.47;2.10;;;19.90;1.00;;;;;;7363684;19;20094;-58
2022/06/01 09:02:06;;;;;;;6.78;2.55;;;19.90;1.00;;;;;;7364204;19;20318;-60
2022/06/01 09:04:46;;;;;;;5.05;1.90;;;20.00;1.00;;;;;;7361877;19;20011;-58
2022/06/01 09:07:26;;;;;;;2.85;2.30;;;19.90;1.00;;;;;;7361251;19;20110;-59
2022/06/01 09:10:08;;;;;;;2.20;1.58;;;20.30;1.00;;;;;;7363912;19;20489;-59
2022/06/01 09:12:40;;;;;;;3.63;2.63;;;20.60;1.00;;;;;;7361447;19;20482;-59
2022/06/01 09:15:17;;;;;;;5.50;2.03;;;20.80;1.00;;;;;;7384928;19;20090;-59
2022/06/01 09:17:50;;;;;;;3.45;1.70;;;21.00;1.00;;;;;;7361045;19;20035;-59
2022/06/01 09:23:04;;;;;;;5.50;1.90;;;21.10;1.00;;;;;;7360814;19;20021;-59
2022/06/01 09:25:36;;;;;;;5.75;1.88;;;21.70;1.00;;;;;;7362739;19;20007;-58
2022/06/01 09:28:18;;;;;;;5.78;1.90;;;21.50;1.00;;;;;;7361576;19;20006;-59
2022/06/01 09:30:56;;;;;;;4.35;1.83;;;21.50;1.00;;;;;;7363917;19;20060;-59
2022/06/01 09:33:31;;;;;;;5.40;2.10;;;21.70;1.00;;;;;;7381467;19;20101;-60
2022/06/01 09:36:29;;;;;;;8.35;1.80;;;21.50;1.00;;;;;;7363164;19;20031;-60
2022/06/01 09:39:04;;;;;;;2.83;1.70;;;22.00;1.00;;;;;;7364966;19;20078;-59
2022/06/01 09:41:40;;;;;;;2.78;1.77;;;21.30;1.00;;;;;;7364180;19;19999;-60
2022/06/01 09:44:15;;;;;;;10.10;1.80;;;21.70;1.00;;;;;;7355056;19;20097;-59
2022/06/01 09:46:53;;;;;;;2.78;1.77;;;21.90;1.00;;;;;;7357986;19;20011;-59
2022/06/01 09:49:29;;;;;;;5.00;2.15;;;22.10;1.00;;;;;;7361625;19;20342;-59
2022/06/01 09:52:02;;;;;;;2.10;1.52;;;22.00;1.00;;;;;;7365156;19;20399;-59
2022/06/01 09:54:37;;;;;;;5.88;1.65;;;22.50;1.00;;;;;;7364390;19;20023;-60
2022/06/01 09:57:19;;;;;;;7.18;2.03;;;22.80;1.00;;;;;;7386315;19;20011;-59
2022/06/01 10:08:12;;;;;;;2.10;1.83;;;22.70;1.00;;;;;;7367987;19;19975;-59
2022/06/01 10:10:58;;;;;;;2.72;1.70;;;22.50;1.00;;;;;;7369791;19;20042;-59
2022/06/01 10:13:33;;;;;;;2.70;1.80;;;22.40;1.00;;;;;;7366758;19;20014;-59
2022/06/01 10:16:12;;;;;;;3.67;2.22;;;21.90;1.00;;;;;;7369602;19;20082;-59
2022/06/01 10:18:45;;;;;;;2.15;1.40;;;21.90;1.00;;;;;;7369592;19;20030;-60
2022/06/01 10:21:23;;;;;;;3.83;1.35;;;22.30;1.00;;;;;;7392202;19;20079;-60
2022/06/01 10:23:56;;;;;;;2.25;1.20;;;22.30;1.00;;;;;;7363779;19;20014;-59
2022/06/01 10:26:29;;;;;;;3.67;1.55;;;23.10;1.00;;;;;;7364934;19;20014;-59
2022/06/01 10:29:05;;;;;;;2.70;1.58;;;22.50;1.00;;;;;;7368126;19;20018;-60
2022/06/01 10:31:39;;;;;;;1.80;1.27;;;21.80;1.00;;;;;;7369990;19;20007;-59
2022/06/01 10:34:18;;;;;;;4.07;1.60;;;22.10;1.00;;;;;;7362687;19;20039;-60
2022/06/01 10:36:58;;;;;;;2.08;1.38;;;22.90;1.00;;;;;;7365354;19;20009;-59
2022/06/01 10:39:34;;;;;;;3.25;1.30;;;22.00;1.00;;;;;;7391144;19;20018;-59
2022/06/01 10:42:11;;;;;;;2.65;1.40;;;22.10;1.00;;;;;;7368556;19;20017;-59
2022/06/01 10:44:47;;;;;;;2.17;1.42;;;22.20;1.00;;;;;;7365097;19;20039;-59
2022/06/01 10:47:23;;;;;;;2.08;1.00;;;22.60;1.00;;;;;;7365604;19;20009;-59
2022/06/01 10:49:57;;;;;;;2.13;1.30;;;22.10;1.00;;;;;;7366189;19;20081;-59
2022/06/01 10:52:36;;;;;;;1.70;1.40;;;23.10;1.00;;;;;;7364772;19;20018;-59
2022/06/01 10:55:12;;;;;;;2.17;1.30;;;23.80;1.00;;;;;;7365277;19;20481;-60
2022/06/01 10:57:45;;;;;;;2.55;1.08;;;23.10;1.00;;;;;;7365890;19;20016;-59
2022/06/01 11:00:20;;;;;;;1.85;1.30;;;22.00;1.00;;;;;;7388042;19;20037;-60
2022/06/01 11:03:21;;;;;;;2.42;1.27;;;22.90;1.00;;;;;;7363170;19;20018;-60
2022/06/01 11:06:00;;;;;;;1.85;1.00;;;23.70;1.00;;;;;;7364501;19;20018;-58
2022/06/01 11:08:45;;;;;;;2.53;1.40;;;23.20;1.00;;;;;;7364080;19;20458;-60
2022/06/01 11:11:27;;;;;;;2.85;1.40;;;23.10;1.00;;;;;;7365618;19;20762;-60
2022/06/01 11:14:14;;;;;;;2.10;1.27;;;22.90;1.00;;;;;;7361830;19;20014;-59
2022/06/01 11:16:56;;;;;;;4.00;1.50;;;22.80;1.00;;;;;;7363834;19;20014;-59
2022/06/01 11:19:51;;;;;;;2.80;1.80;;;23.20;1.00;;;;;;7368436;19;20462;-59
2022/06/01 11:22:36;;;;;;;2.38;1.55;;;23.20;1.00;;;;;;7365693;19;20027;-60
2022/06/01 11:25:17;;;;;;;3.45;1.20;;;23.60;1.00;;;;;;7364943;19;20102;-60
2022/06/01 11:28:01;;;;;;;1.98;1.25;;;23.70;1.00;;;;;;7362134;19;20483;-60
2022/06/01 11:30:49;;;;;;;3.17;1.33;;;23.40;1.00;;;;;;7372949;19;20032;-61
2022/06/01 11:33:32;;;;;;;3.42;1.00;;;23.70;1.00;;;;;;7386464;19;20018;-61
2022/06/01 11:36:07;;;;;;;4.43;1.30;;;23.30;1.00;;;;;;7364145;19;20015;-60
2022/06/01 11:38:42;;;;;;;1.20;1.10;;;23.00;1.00;;;;;;7364218;19;20006;-59
2022/06/01 11:41:20;;;;;;;2.92;1.48;;;22.30;1.00;;;;;;7365282;19;20366;-62
2022/06/01 11:43:56;;;;;;;2.78;1.13;;;23.10;1.00;;;;;;7361259;19;20039;-59
2022/06/01 11:46:37;;;;;;;5.05;1.50;;;23.40;1.00;;;;;;7361376;19;20289;-59
2022/06/01 11:49:13;;;;;;;1.70;1.10;;;22.80;1.00;;;;;;7365367;19;20014;-60
2022/06/01 11:51:53;;;;;;;2.58;1.13;;;23.20;1.00;;;;;;7365815;19;20504;-62
2022/06/01 11:54:35;;;;;;;3.63;1.20;;;22.90;1.00;;;;;;7384268;19;20538;-60
2022/06/01 11:57:25;;;;;;;3.38;1.50;;;23.50;1.00;;;;;;7359600;19;20041;-59
2022/06/01 12:00:07;;;;;;;1.77;1.10;;;23.20;1.00;;;;;;7364737;19;20014;-59
2022/06/01 12:02:47;;;;;;;2.80;1.10;;;22.90;1.00;;;;;;7362417;19;20418;-59
2022/06/01 12:05:25;;;;;;;3.05;1.08;;;23.40;1.00;;;;;;7363755;19;20040;-60
2022/06/01 12:07:59;;;;;;;1.65;1.10;;;23.40;1.00;;;;;;7362090;19;20045;-59
2022/06/01 12:10:31;;;;;;;1.67;1.20;;;23.00;1.00;;;;;;7364971;19;20003;-59
2022/06/01 12:13:25;;;;;;;2.95;1.25;;;23.00;1.00;;;;;;7361436;19;20586;-60
2022/06/01 12:16:20;;;;;;;1.88;1.20;;;23.50;1.00;;;;;;7363762;19;20040;-59
2022/06/01 12:19:11;;;;;;;2.03;1.23;;;23.90;1.00;;;;;;7364700;19;20027;-58
2022/06/01 12:21:58;;;;;;;3.55;1.02;;;23.60;1.00;;;;;;7365350;19;20462;-59
2022/06/01 12:30:18;;;;;;;2.08;1.40;;;23.50;1.00;;;;;;7389581;19;20344;-60
2022/06/01 12:33:14;;;;;;;3.38;1.30;;;23.90;1.00;;;;;;7362979;19;20017;-58
2022/06/01 12:35:54;;;;;;;4.22;1.30;;;22.70;1.00;;;;;;7363141;19;20408;-60
2022/06/01 12:38:34;;;;;;;2.35;1.35;;;22.90;1.00;;;;;;7365215;19;20131;-60
2022/06/01 12:41:20;;;;;;;3.42;1.50;;;22.50;1.00;;;;;;7364729;19;20013;-59
2022/06/01 12:43:55;;;;;;;2.00;1.30;;;22.70;1.00;;;;;;7359226;19;20015;-60
2022/06/01 12:46:31;;;;;;;3.63;1.48;;;22.30;1.00;;;;;;7364539;19;20613;-58
2022/06/01 12:49:33;;;;;;;2.22;1.55;;;22.60;1.00;;;;;;7364376;19;20010;-59
2022/06/01 12:52:05;;;;;;;5.22;1.90;;;23.20;1.00;;;;;;7360984;19;20323;-59
2022/06/01 12:54:38;;;;;;;3.75;1.52;;;23.00;1.00;;;;;;7361465;19;20082;-59
2022/06/01 12:57:12;;;;;;;2.08;1.42;;;22.80;1.00;;;;;;7381291;19;20018;-59
2022/06/01 12:59:44;;;;;;;2.65;1.33;;;23.30;1.00;;;;;;7364281;19;20014;-59
2022/06/01 13:02:18;;;;;;;5.88;1.60;;;23.50;1.00;;;;;;7361684;19;20023;-58
2022/06/01 13:04:55;;;;;;;;;;;23.10;1.00;;;;;;7361847;19;20007;-59
2022/06/01 13:07:31;;;;;;;7.07;1.67;;;23.10;1.00;;;;;;7359860;19;20869;-59
2022/06/01 13:10:12;;;;;;;3.15;1.52;;;24.00;1.00;;;;;;7363518;19;20032;-59
2022/06/01 13:12:42;;;;;;;4.40;1.50;;;23.50;1.00;;;;;;7358278;19;20375;-59
2022/06/01 13:15:17;;;;;;;2.55;1.60;;;23.60;1.00;;;;;;7383194;19;20025;-59
2022/06/01 13:17:50;;;;;;;;;;;23.50;1.00;;;;;;7360932;19;20014;-59
2022/06/01 13:20:25;;;;;;;3.90;1.27;;;23.00;1.00;;;;;;7363381;19;19921;-60
2022/06/01 13:22:56;;;;;;;1.40;1.10;;;23.30;1.00;;;;;;7360974;19;20006;-59
2022/06/01 13:25:31;;;;;;;1.95;1.60;;;23.70;1.00;;;;;;7362234;19;20074;-60
2022/06/01 13:28:05;;;;;;;2.17;1.58;;;23.30;1.00;;;;;;7367524;19;21340;-60
2022/06/01 13:30:36;;;;;;;2.88;1.40;;;22.80;1.00;;;;;;7370284;19;20082;-61
2022/06/01 13:33:20;;;;;;;3.03;1.38;;;22.80;1.00;;;;;;7387508;19;20350;-59
2022/06/01 13:35:58;;;;;;;6.15;1.80;;;23.40;1.00;;;;;;7367229;19;20073;-60
2022/06/01 13:38:37;;;;;;;2.60;1.33;;;23.70;1.00;;;;;;7365493;19;20019;-60
2022/06/01 13:41:12;;;;;;;2.28;1.40;;;23.20;1.00;;;;;;7368461;19;20014;-59
2022/06/01 13:43:44;;;;;;;4.65;1.40;;;24.10;1.00;;;;;;7366681;19;20405;-59
2022/06/01 13:46:16;;;;;;;2.47;1.42;;;23.70;1.00;;;;;;7368913;19;20078;-59
2022/06/01 13:48:55;;;;;;;3.60;1.30;;;23.10;1.00;;;;;;7365024;19;20010;-58
2022/06/01 13:51:30;;;;;;;3.05;1.60;;;22.50;1.00;;;;;;7392627;19;20016;-59
2022/06/01 13:54:02;;;;;;;6.82;2.72;;;22.90;1.00;;;;;;7365375;19;20014;-59
2022/06/01 13:56:35;;;;;;;3.17;1.60;;;23.60;1.00;;;;;;7367363;19;20006;-59
2022/06/01 13:59:07;;;;;;;2.45;1.73;;;23.80;1.00;;;;;;7370033;19;20094;-59
2022/06/01 14:01:42;;;;;;;1.75;1.58;;;24.10;1.00;;;;;;7368381;19;20010;-58
2022/06/01 14:04:23;;;;;;;3.05;1.70;;;24.00;1.00;;;;;;7364980;19;20398;-58
2022/06/01 14:06:58;;;;;;;1.83;1.08;;;24.30;1.00;;;;;;7365468;19;20090;-58